Time;durP1;ratioP1;P1;durP2;ratioP2;P2;SDS_P1;SDS_P2;PMS_P1;PMS_P2;Temp;Humidity;BMP_temperature;BMP_pressure;BME280_temperature;BME280_humidity;BME280_pressure;Samples;Min_cycle;Max_cycle;Signal;HPM_P1;HPM_P2
2022/03/05 00:01:33;;;;;;;3.10;1.33;;;;;;;2.05;47.44;99615.63;4877903;29;20041;-79
2022/03/05 00:03:59;;;;;;;8.57;3.35;;;;;;;2.03;47.75;99622.41;4864617;29;20057;-81
2022/03/05 00:06:26;;;;;;;2.05;1.40;;;;;;;1.80;47.04;99604.78;4880206;29;20116;-78
2022/03/05 00:08:53;;;;;;;3.72;1.85;;;;;;;1.86;47.29;99624.59;4889532;29;20511;-78
2022/03/05 00:11:19;;;;;;;2.88;1.55;;;;;;;1.76;47.36;99596.97;4878099;29;20958;-77
2022/03/05 00:13:46;;;;;;;2.75;1.65;;;;;;;1.91;47.17;99606.72;4887470;29;20136;-80
2022/03/05 00:16:12;;;;;;;4.05;1.50;;;;;;;1.93;47.39;99613.63;4875019;29;20081;-77
2022/03/05 00:18:38;;;;;;;3.40;1.73;;;;;;;1.93;46.96;99611.06;4878427;29;20045;-78
2022/03/05 00:21:04;;;;;;;2.28;1.30;;;;;;;1.83;47.67;99601.41;4879320;29;20056;-79
2022/03/05 00:23:30;;;;;;;2.22;1.55;;;;;;;1.81;47.79;99605.63;4876417;29;20041;-80
2022/03/05 00:25:56;;;;;;;4.03;1.90;;;;;;;1.82;47.72;99588.56;4878783;29;20045;-82
2022/03/05 00:28:22;;;;;;;3.92;1.52;;;;;;;1.76;47.38;99577.31;4882904;29;20048;-74
2022/03/05 00:30:49;;;;;;;4.28;1.50;;;;;;;1.82;47.80;99598.81;4895602;29;20081;-80
2022/03/05 00:33:15;;;;;;;3.88;1.75;;;;;;;1.84;47.58;99604.84;4883526;29;20048;-78
2022/03/05 00:35:41;;;;;;;3.67;1.67;;;;;;;1.88;47.84;99602.38;4916685;29;20056;-78
2022/03/05 00:38:07;;;;;;;3.80;1.85;;;;;;;1.94;48.04;99589.72;4893313;29;20454;-80
2022/03/05 00:40:34;;;;;;;4.45;1.90;;;;;;;2.01;47.66;99608.66;4889947;29;20048;-79
2022/03/05 00:43:00;;;;;;;2.55;1.50;;;;;;;2.06;47.57;99601.06;4874966;29;20085;-78
2022/03/05 00:45:26;;;;;;;4.00;1.83;;;;;;;2.14;47.77;99602.13;4887288;29;20041;-80
2022/03/05 00:47:52;;;;;;;3.55;1.88;;;;;;;2.18;47.89;99606.50;4886623;29;20049;-78
2022/03/05 00:50:18;;;;;;;4.78;1.92;;;;;;;2.19;47.53;99607.34;4876134;29;20057;-78
2022/03/05 00:52:44;;;;;;;4.65;1.95;;;;;;;2.21;47.71;99608.25;4876232;29;20055;-78
2022/03/05 00:55:10;;;;;;;5.10;2.60;;;;;;;2.14;47.29;99601.22;4874270;29;20048;-79
2022/03/05 00:57:37;;;;;;;4.35;2.58;;;;;;;2.14;47.52;99596.09;4875758;29;20056;-80
2022/03/05 01:00:05;;;;;;;4.65;2.65;;;;;;;2.13;47.43;99590.09;4906074;29;20467;-81
2022/03/05 01:02:31;;;;;;;4.72;2.10;;;;;;;2.20;47.31;99604.81;4891102;29;20106;-78
2022/03/05 01:04:57;;;;;;;4.60;2.33;;;;;;;2.19;47.92;99618.50;4891649;29;20056;-79
2022/03/05 01:07:25;;;;;;;6.70;2.33;;;;;;;2.06;48.36;99595.94;4903265;29;20111;-77
2022/03/05 01:09:51;;;;;;;4.78;2.40;;;;;;;2.03;48.09;99609.56;4871521;29;20131;-79
2022/03/05 01:12:22;;;;;;;6.45;2.50;;;;;;;1.92;47.84;99586.25;4877017;29;20076;-78
2022/03/05 01:14:51;;;;;;;7.05;2.83;;;;;;;1.88;48.61;99587.00;4877854;29;21202;-79
2022/03/05 01:17:19;;;;;;;6.15;2.38;;;;;;;2.14;48.20;99611.50;4894181;29;20036;-78
2022/03/05 01:19:54;;;;;;;7.20;2.42;;;;;;;2.21;48.51;99605.69;4898323;29;20040;-79
2022/03/05 01:22:20;;;;;;;4.10;2.42;;;;;;;2.22;48.67;99615.97;4880696;29;20104;-80
2022/03/05 01:24:47;;;;;;;4.78;2.50;;;;;;;2.15;48.60;99595.25;4920700;29;20056;-79
2022/03/05 01:27:13;;;;;;;5.32;2.80;;;;;;;2.06;48.93;99590.81;4885732;29;20067;-77
2022/03/05 01:29:39;;;;;;;5.13;2.72;;;;;;;2.10;49.06;99593.47;4861577;29;20051;-78
2022/03/05 01:32:05;;;;;;;4.53;2.50;;;;;;;2.19;48.96;99592.81;4898365;29;20044;-79
2022/03/05 01:34:36;;;;;;;5.13;2.92;;;;;;;2.02;48.88;99573.59;4872394;29;20113;-78
2022/03/05 01:37:03;;;;;;;5.38;2.83;;;;;;;2.14;49.31;99602.13;4915161;29;20483;-79
2022/03/05 01:39:29;;;;;;;6.20;2.90;;;;;;;1.99;49.72;99579.53;4880747;29;20075;-79
2022/03/05 01:41:56;;;;;;;5.18;2.70;;;;;;;2.15;49.54;99606.41;4866385;29;20051;-78
2022/03/05 01:44:23;;;;;;;5.05;2.38;;;;;;;2.11;49.51;99597.75;4862624;29;20103;-80
2022/03/05 01:46:49;;;;;;;4.82;2.40;;;;;;;2.17;49.65;99601.31;4894044;29;20060;-80
2022/03/05 01:49:15;;;;;;;5.40;2.83;;;;;;;2.05;49.77;99587.38;4904302;29;20044;-80
2022/03/05 01:51:42;;;;;;;4.78;2.22;;;;;;;2.10;50.13;99610.56;4894499;29;20044;-77
2022/03/05 01:54:11;;;;;;;4.70;2.33;;;;;;;2.04;49.45;99598.47;4877837;29;20044;-78
2022/03/05 01:56:38;;;;;;;5.03;2.65;;;;;;;2.08;50.42;99591.69;4913764;29;20023;-78
2022/03/05 01:59:05;;;;;;;4.32;2.50;;;;;;;2.14;49.81;99609.81;4882915;29;20060;-77
2022/03/05 02:01:31;;;;;;;4.35;2.60;;;;;;;2.16;49.60;99602.13;4900548;29;20048;-77
2022/03/05 02:03:57;;;;;;;5.63;2.67;;;;;;;2.08;49.83;99597.72;4912186;29;20115;-78
2022/03/05 02:06:24;;;;;;;7.78;2.85;;;;;;;2.13;50.35;99608.09;4877563;29;20044;-80
2022/03/05 02:08:50;;;;;;;5.72;2.20;;;;;;;2.09;50.57;99606.28;4928642;29;20048;-79
2022/03/05 02:11:17;;;;;;;6.22;2.15;;;;;;;2.09;50.05;99614.84;4912122;29;20037;-80
2022/03/05 02:13:43;;;;;;;5.32;2.42;;;;;;;2.10;50.33;99613.16;4896695;29;20052;-77
2022/03/05 02:16:10;;;;;;;4.20;2.40;;;;;;;2.02;50.72;99600.13;4879483;29;20048;-81
2022/03/05 02:18:36;;;;;;;5.00;2.38;;;;;;;2.01;50.40;99608.66;4907252;29;20040;-79
2022/03/05 02:21:02;;;;;;;5.70;2.25;;;;;;;2.07;50.31;99613.97;4895826;29;21177;-78
2022/03/05 02:23:28;;;;;;;2.92;1.98;;;;;;;2.04;51.05;99620.69;4900840;29;20024;-79
2022/03/05 02:25:59;;;;;;;3.38;2.15;;;;;;;1.95;50.91;99611.09;4898487;29;20052;-81
2022/03/05 02:28:27;;;;;;;3.13;1.98;;;;;;;2.00;51.22;99629.16;4914564;29;20036;-77
2022/03/05 02:30:54;;;;;;;2.65;1.65;;;;;;;2.05;50.75;99625.00;4901185;29;20100;-80
2022/03/05 02:33:20;;;;;;;3.20;1.90;;;;;;;2.03;50.36;99621.53;4899574;29;20112;-79
2022/03/05 02:35:47;;;;;;;3.28;1.67;;;;;;;1.99;50.37;99617.19;4899488;29;20021;-78
2022/03/05 02:38:14;;;;;;;3.72;1.75;;;;;;;1.91;51.05;99599.00;4913101;29;20048;-78
2022/03/05 02:40:42;;;;;;;2.70;1.50;;;;;;;1.97;50.88;99622.25;4888257;29;20064;-82
2022/03/05 02:43:09;;;;;;;3.05;1.90;;;;;;;2.01;50.38;99623.19;4907021;29;20210;-76
2022/03/05 02:45:36;;;;;;;3.17;1.52;;;;;;;2.00;50.66;99624.03;4902312;29;20043;-77
2022/03/05 02:48:06;;;;;;;4.65;1.60;;;;;;;1.92;50.60;99611.91;4899973;29;20546;-80
2022/03/05 02:50:32;;;;;;;3.33;1.50;;;;;;;1.88;50.38;99606.63;4930902;29;20040;-80
2022/03/05 02:52:58;;;;;;;2.13;1.05;;;;;;;1.93;50.06;99620.44;4892636;29;20132;-79
2022/03/05 02:55:25;;;;;;;1.98;1.35;;;;;;;1.88;49.85;99617.78;4907123;29;20671;-78
2022/03/05 02:57:51;;;;;;;3.67;1.55;;;;;;;1.80;50.44;99615.03;4896175;29;20139;-78
2022/03/05 03:00:17;;;;;;;6.15;1.50;;;;;;;1.88;50.56;99632.31;4918423;29;20040;-78
2022/03/05 03:02:45;;;;;;;3.45;1.50;;;;;;;1.83;50.52;99616.81;4869896;29;20056;-80
2022/03/05 03:05:14;;;;;;;2.90;1.52;;;;;;;1.87;50.47;99628.88;4885961;29;20061;-77
2022/03/05 03:07:40;;;;;;;2.67;1.48;;;;;;;1.85;49.78;99637.38;4885820;29;20139;-79
2022/03/05 03:10:08;;;;;;;2.97;1.30;;;;;;;1.85;49.77;99633.09;4892943;29;20048;-80
2022/03/05 03:12:34;;;;;;;2.85;1.48;;;;;;;1.83;50.07;99633.91;4879287;29;20044;-78
2022/03/05 03:15:00;;;;;;;1.83;1.27;;;;;;;1.71;49.87;99619.09;4896913;29;20045;-79
2022/03/05 03:17:26;;;;;;;2.55;1.40;;;;;;;1.77;50.36;99630.38;4912359;29;20144;-78
2022/03/05 03:19:53;;;;;;;2.00;1.40;;;;;;;1.78;50.42;99624.41;4895610;29;20123;-79
2022/03/05 03:22:19;;;;;;;2.03;1.20;;;;;;;1.84;49.98;99640.78;4865236;29;20048;-76
2022/03/05 03:24:45;;;;;;;1.92;1.13;;;;;;;1.84;50.43;99635.66;4893425;29;20044;-76
2022/03/05 03:27:10;;;;;;;3.15;1.20;;;;;;;1.82;50.51;99643.28;4881565;29;20051;-78
2022/03/05 03:29:36;;;;;;;1.90;0.93;;;;;;;1.84;50.77;99639.06;4909580;29;20286;-79
2022/03/05 03:32:04;;;;;;;3.03;1.42;;;;;;;1.72;50.81;99631.09;4910306;29;20052;-79
2022/03/05 03:34:30;;;;;;;1.35;0.95;;;;;;;1.81;51.00;99644.13;4899387;29;20059;-79
2022/03/05 03:36:56;;;;;;;1.77;1.02;;;;;;;1.87;51.41;99646.00;4879989;29;20044;-79
2022/03/05 03:39:22;;;;;;;1.70;1.17;;;;;;;1.89;50.57;99639.16;4894515;29;20048;-80
2022/03/05 03:41:47;;;;;;;1.83;1.23;;;;;;;1.85;50.82;99642.53;4895019;29;20421;-78
2022/03/05 03:44:13;;;;;;;1.52;0.82;;;;;;;1.87;50.46;99654.53;4877859;29;20044;-80
2022/03/05 03:46:39;;;;;;;1.65;1.30;;;;;;;1.85;50.82;99655.34;4863058;29;20061;-77
2022/03/05 03:49:05;;;;;;;3.08;1.10;;;;;;;1.83;50.65;99651.88;4890376;29;20044;-80
2022/03/05 03:51:31;;;;;;;2.78;1.15;;;;;;;1.84;51.20;99654.47;4847285;29;20072;-77
2022/03/05 03:53:57;;;;;;;2.60;1.20;;;;;;;1.82;50.98;99656.13;4909127;29;20068;-77
2022/03/05 03:56:23;;;;;;;2.17;1.00;;;;;;;1.75;51.31;99639.72;4862639;29;20044;-78
2022/03/05 03:58:49;;;;;;;1.60;0.90;;;;;;;1.80;50.67;99657.78;4879913;29;20052;-77
2022/03/05 04:01:15;;;;;;;1.00;0.70;;;;;;;1.78;50.95;99667.13;4895783;29;20130;-78
2022/03/05 04:03:45;;;;;;;6.68;1.00;;;;;;;1.66;50.61;99657.44;4879848;29;20114;-80
2022/03/05 04:06:11;;;;;;;2.97;0.80;;;;;;;1.59;50.84;99653.00;4862499;29;20530;-78
2022/03/05 04:08:43;;;;;;;4.40;1.05;;;;;;;1.62;50.23;99665.91;4861834;29;20044;-80
2022/03/05 04:11:13;;;;;;;1.17;0.57;;;;;;;1.58;49.81;99657.25;4905121;29;20109;-78
2022/03/05 04:13:40;;;;;;;1.98;0.70;;;;;;;1.43;50.28;99662.88;4861875;29;20049;-78
2022/03/05 04:16:06;;;;;;;0.93;0.75;;;;;;;1.39;50.35;99658.50;4911744;29;20566;-78
2022/03/05 04:18:33;;;;;;;3.03;0.60;;;;;;;1.31;49.81;99671.13;4878595;29;20044;-78
2022/03/05 04:21:00;;;;;;;2.70;0.70;;;;;;;1.33;50.41;99664.31;4894182;29;20035;-77
2022/03/05 04:23:26;;;;;;;1.45;0.60;;;;;;;1.39;49.92;99670.44;4908960;29;20055;-79
2022/03/05 04:25:51;;;;;;;3.65;0.70;;;;;;;1.43;50.26;99674.81;4893679;29;20040;-77
2022/03/05 04:28:17;;;;;;;1.88;1.05;;;;;;;1.45;50.03;99679.16;4877445;29;20044;-79
2022/03/05 04:30:43;;;;;;;0.93;0.77;;;;;;;1.44;50.00;99669.72;4893475;29;20274;-79
2022/03/05 04:33:10;;;;;;;1.48;0.60;;;;;;;1.50;50.02;99682.72;4878026;29;20131;-80
2022/03/05 04:35:37;;;;;;;1.67;0.77;;;;;;;1.49;50.00;99696.34;4892512;29;20049;-78
2022/03/05 04:38:04;;;;;;;1.13;0.80;;;;;;;1.52;49.84;99685.34;4893643;29;20522;-79
2022/03/05 04:40:31;;;;;;;6.40;1.10;;;;;;;1.49;49.80;99714.31;4877716;29;20036;-78
2022/03/05 04:42:59;;;;;;;1.65;0.98;;;;;;;1.42;49.68;99691.03;4893661;29;20131;-77
2022/03/05 04:45:26;;;;;;;1.25;0.90;;;;;;;1.45;49.96;99697.09;4893180;29;20418;-77
2022/03/05 04:47:53;;;;;;;2.05;1.17;;;;;;;1.58;49.69;99711.13;4877157;29;20052;-80
2022/03/05 04:50:19;;;;;;;2.53;0.90;;;;;;;1.59;50.09;99712.84;4861264;29;20045;-78
2022/03/05 04:52:45;;;;;;;1.40;1.00;;;;;;;1.52;49.67;99694.72;4872088;29;20072;-78
2022/03/05 04:55:11;;;;;;;2.15;1.00;;;;;;;1.66;50.39;99713.88;4876864;29;20052;-81
2022/03/05 04:57:37;;;;;;;2.95;0.90;;;;;;;1.54;50.50;99723.81;4907273;29;20391;-79
2022/03/05 05:00:07;;;;;;;1.52;0.93;;;;;;;1.54;50.15;99724.72;4876119;29;20040;-77
2022/03/05 05:02:33;;;;;;;1.50;1.00;;;;;;;1.55;51.19;99720.44;4892474;29;20055;-78
2022/03/05 05:04:59;;;;;;;3.55;1.30;;;;;;;1.53;51.16;99716.97;4876858;29;20056;-80
2022/03/05 05:07:26;;;;;;;2.08;1.00;;;;;;;1.55;50.42;99726.41;4871730;29;20072;-78
2022/03/05 05:09:52;;;;;;;3.88;1.25;;;;;;;1.52;50.87;99734.06;4895575;29;20083;-79
2022/03/05 05:12:19;;;;;;;2.00;1.20;;;;;;;1.60;50.86;99740.25;4876144;29;20092;-79
2022/03/05 05:14:45;;;;;;;1.40;1.05;;;;;;;1.58;51.44;99723.09;4893967;29;20044;-79
2022/03/05 05:17:11;;;;;;;2.50;1.10;;;;;;;1.73;51.26;99738.88;4876162;29;20525;-80
2022/03/05 05:19:37;;;;;;;4.07;1.17;;;;;;;1.80;50.87;99727.06;4876151;29;20028;-77
2022/03/05 05:22:06;;;;;;;4.65;1.50;;;;;;;1.77;51.53;99730.44;4895179;29;20572;-79
2022/03/05 05:24:36;;;;;;;3.38;1.30;;;;;;;1.77;51.12;99738.13;4894364;29;20040;-80
2022/03/05 05:27:03;;;;;;;1.98;1.38;;;;;;;1.65;51.58;99741.25;4893245;29;20045;-77
2022/03/05 05:29:30;;;;;;;2.47;1.10;;;;;;;1.63;51.25;99724.09;4875216;29;20044;-79
2022/03/05 05:31:56;;;;;;;3.67;1.20;;;;;;;1.62;52.11;99735.19;4877304;29;20616;-79
2022/03/05 05:34:23;;;;;;;1.88;1.10;;;;;;;1.67;52.46;99736.13;4893008;29;20131;-79
2022/03/05 05:36:49;;;;;;;1.48;1.13;;;;;;;1.76;52.23;99745.81;4895652;29;20182;-78
2022/03/05 05:39:16;;;;;;;3.53;1.25;;;;;;;1.79;52.33;99744.16;4880959;29;20064;-81
2022/03/05 05:41:45;;;;;;;2.40;1.27;;;;;;;1.73;52.24;99738.88;4878113;29;20048;-77
2022/03/05 05:44:12;;;;;;;1.88;1.10;;;;;;;1.77;52.66;99743.25;4882723;29;20032;-78
2022/03/05 05:46:38;;;;;;;1.67;1.20;;;;;;;1.71;52.40;99730.25;4893604;29;20040;-79
2022/03/05 05:49:05;;;;;;;2.15;1.20;;;;;;;1.76;52.69;99754.34;4875899;29;20574;-80
2022/03/05 05:51:32;;;;;;;1.90;1.20;;;;;;;1.82;51.89;99747.66;4875785;29;20033;-80
2022/03/05 05:54:01;;;;;;;3.35;1.50;;;;;;;1.87;52.70;99757.19;4893991;29;20080;-80
2022/03/05 05:56:27;;;;;;;1.90;1.27;;;;;;;1.96;52.09;99748.84;4888286;29;20048;-78
2022/03/05 05:58:53;;;;;;;3.03;1.77;;;;;;;1.97;52.04;99758.28;4875652;29;20049;-79
2022/03/05 06:01:20;;;;;;;2.67;1.30;;;;;;;1.98;51.83;99752.34;4862126;29;20036;-81
2022/03/05 06:03:50;;;;;;;2.05;1.30;;;;;;;1.48;51.74;99671.53;4867703;29;20064;-81
2022/03/05 06:06:17;;;;;;;3.15;1.38;;;;;;;1.84;51.66;99731.44;4873801;29;20040;-79
2022/03/05 06:08:43;;;;;;;2.65;0.98;;;;;;;1.32;51.59;99654.91;4883001;29;20044;-81
2022/03/05 06:11:09;;;;;;;2.80;1.42;;;;;;;2.13;51.01;99764.69;4874462;29;20140;-81
2022/03/05 06:13:35;;;;;;;1.85;1.30;;;;;;;2.02;50.49;99751.59;4892148;29;20186;-80
2022/03/05 06:16:01;;;;;;;3.10;1.30;;;;;;;2.05;50.88;99740.50;4881124;29;20218;-81
2022/03/05 06:18:27;;;;;;;2.25;1.15;;;;;;;2.13;50.54;99749.28;4879248;29;20037;-81
2022/03/05 06:21:00;;;;;;;1.05;0.82;;;;;;;2.01;50.16;99726.75;4890234;29;20044;-81
2022/03/05 06:23:26;;;;;;;3.60;1.30;;;;;;;2.08;49.61;99745.72;4900401;29;20037;-79
2022/03/05 06:25:52;;;;;;;2.70;0.90;;;;;;;2.11;49.90;99744.09;4879492;29;20058;-80
2022/03/05 06:28:19;;;;;;;2.42;1.20;;;;;;;2.10;49.58;99720.97;4873410;29;20475;-81
2022/03/05 06:30:45;;;;;;;1.67;1.15;;;;;;;2.27;49.74;99734.22;4903957;29;20452;-84
2022/03/05 06:33:11;;;;;;;1.45;1.00;;;;;;;2.35;49.01;99732.69;4859145;29;20041;-83
2022/03/05 06:35:38;;;;;;;3.60;1.13;;;;;;;2.52;48.96;99769.03;4872223;29;20053;-82
2022/03/05 06:38:08;;;;;;;4.10;1.10;;;;;;;2.31;49.05;99730.91;4874300;29;20048;-82
2022/03/05 06:40:49;;;;;;;5.57;1.38;;;;;;;2.34;48.69;99720.66;4862835;29;20044;-85
2022/03/05 06:43:16;;;;;;;1.38;1.10;;;;;;;2.63;48.32;99761.56;4875306;29;20044;-81
2022/03/05 06:45:46;;;;;;;1.98;1.13;;;;;;;2.56;48.15;99770.84;4888641;29;20309;-83
2022/03/05 06:48:12;;;;;;;2.17;1.00;;;;;;;2.57;48.48;99758.84;4905556;29;20104;-80
2022/03/05 06:50:45;;;;;;;4.25;1.55;;;;;;;2.39;48.09;99703.66;4905603;29;20108;-83
2022/03/05 06:53:24;;;;;;;2.33;1.38;;;;;;;2.34;48.31;99669.31;4858191;29;20506;-82
2022/03/05 06:56:43;;;;;;;3.60;1.45;;;;;;;2.85;47.79;99746.63;4889423;29;20049;-82
2022/03/05 06:59:31;;;;;;;3.65;1.60;;;;;;;3.08;47.89;99777.09;4869648;29;20048;-80
2022/03/05 07:01:57;;;;;;;3.45;2.03;;;;;;;2.38;47.74;99655.69;4877842;29;20087;-80
2022/03/05 07:04:27;;;;;;;5.88;2.10;;;;;;;3.20;47.84;99777.34;4894440;29;20087;-81
2022/03/05 07:07:00;;;;;;;3.25;1.80;;;;;;;2.87;47.52;99726.97;4915768;29;20153;-80
2022/03/05 07:09:36;;;;;;;10.00;2.03;;;;;;;3.03;47.71;99756.44;4875300;29;20044;-80
2022/03/05 07:12:03;;;;;;;4.90;2.35;;;;;;;2.80;47.53;99712.25;4880852;29;20407;-81
2022/03/05 07:14:35;;;;;;;4.57;2.25;;;;;;;3.14;47.62;99762.66;4916841;29;20490;-81
2022/03/05 07:17:20;;;;;;;7.05;2.97;;;;;;;3.05;47.63;99723.03;4894109;29;20064;-81
2022/03/05 07:19:50;;;;;;;5.47;2.63;;;;;;;3.41;47.38;99750.34;4908243;29;20044;-82
2022/03/05 07:22:23;;;;;;;5.72;2.15;;;;;;;5.84;47.48;99688.44;4885793;29;20050;-82
2022/03/05 07:25:03;;;;;;;3.35;1.70;;;;;;;9.74;46.04;99764.97;4904351;29;20072;-80
2022/03/05 07:27:29;;;;;;;6.93;1.98;;;;;;;12.54;41.48;99742.63;4919145;29;20044;-80
2022/03/05 07:29:55;;;;;;;3.33;2.00;;;;;;;14.50;36.30;99707.88;4959890;23;20059;-79
2022/03/05 07:32:30;;;;;;;4.10;1.55;;;;;;;15.11;34.19;99694.00;4937385;29;20047;-79
2022/03/05 07:34:59;;;;;;;2.85;1.95;;;;;;;16.22;32.57;99700.16;4937412;29;20031;-80
2022/03/05 07:37:25;;;;;;;3.70;2.40;;;;;;;17.38;32.06;99696.97;4952908;28;20062;-81
2022/03/05 07:39:51;;;;;;;7.03;2.63;;;;;;;19.10;30.26;99709.13;4937130;29;20105;-80
2022/03/05 07:43:15;;;;;;;4.25;2.15;;;;;;;20.32;27.34;99677.78;4958962;29;20058;-79
2022/03/05 07:46:17;;;;;;;6.95;2.10;;;;;;;20.87;26.20;99641.47;4930807;29;20073;-80
2022/03/05 07:48:56;;;;;;;8.05;2.03;;;;;;;19.60;25.90;99688.34;4918950;29;20505;-81
2022/03/05 07:51:22;;;;;;;4.80;2.10;;;;;;;18.73;26.18;99694.06;4951057;29;20047;-79
2022/03/05 07:53:55;;;;;;;3.03;1.83;;;;;;;17.40;25.78;99653.06;4935320;29;20050;-81
2022/03/05 07:56:22;;;;;;;2.83;1.92;;;;;;;16.09;26.17;99704.13;4917066;29;20074;-81
2022/03/05 07:58:50;;;;;;;3.75;2.17;;;;;;;14.72;26.46;99744.84;4958770;28;20039;-77
2022/03/05 08:01:16;;;;;;;6.53;2.83;;;;;;;13.16;27.44;99685.75;4960126;29;20037;-80
2022/03/05 08:03:46;;;;;;;7.03;2.47;;;;;;;12.41;27.44;99723.72;4915167;29;20081;-80
2022/03/05 08:06:13;;;;;;;7.05;2.20;;;;;;;11.48;29.03;99706.03;4910727;29;20049;-79
2022/03/05 08:08:39;;;;;;;7.03;2.22;;;;;;;11.02;28.73;99755.22;4958724;28;20433;-80
2022/03/05 08:11:05;;;;;;;8.70;2.10;;;;;;;10.54;29.39;99766.16;4950361;28;20191;-82
2022/03/05 08:13:34;;;;;;;4.93;1.70;;;;;;;9.18;29.78;99641.50;4929069;29;20061;-80
2022/03/05 08:16:00;;;;;;;5.55;2.25;;;;;;;9.35;30.76;99718.44;4915236;29;21419;-82
2022/03/05 08:18:27;;;;;;;8.60;1.70;;;;;;;9.44;31.04;99752.16;4915346;29;20062;-82
2022/03/05 08:20:53;;;;;;;5.60;1.70;;;;;;;9.13;30.79;99751.44;4917928;29;20032;-79
2022/03/05 08:23:27;;;;;;;4.72;1.70;;;;;;;9.07;31.12;99756.63;4917599;29;20039;-80
2022/03/05 08:25:56;;;;;;;3.25;1.80;;;;;;;9.17;31.46;99756.59;4912505;29;20093;-81
2022/03/05 08:28:22;;;;;;;2.35;1.55;;;;;;;11.62;31.92;99739.72;4932869;29;20047;-81
2022/03/05 08:31:37;;;;;;;3.08;1.63;;;;;;;14.15;29.16;99702.66;4950571;28;20062;-80
2022/03/05 08:33:48;;;;;;;3.15;1.63;;;;;;;17.08;27.23;99648.13;4929856;29;20067;-77
2022/03/05 08:36:13;;;;;;;3.58;1.77;;;;;;;18.88;24.85;99734.72;4951072;29;20073;-76
2022/03/05 08:38:45;;;;;;;3.20;2.08;;;;;;;20.66;23.93;99728.91;4931872;29;20051;-76
2022/03/05 08:41:15;;;;;;;5.25;2.20;;;;;;;21.47;21.76;99736.09;4929568;29;20158;-76
2022/03/05 08:43:45;;;;;;;4.13;2.25;;;;;;;22.75;21.47;99740.31;4931883;29;20047;-77
2022/03/05 08:49:04;;;;;;;3.72;2.28;;;;;;;23.67;20.14;99740.84;4934171;29;20592;-74
2022/03/05 08:51:30;;;;;;;6.80;2.03;;;;;;;22.06;20.41;99745.22;4948951;29;20047;-77
2022/03/05 08:54:00;;;;;;;3.92;2.40;;;;;;;21.42;20.62;99689.66;4906448;29;20149;-75
2022/03/05 08:56:27;;;;;;;3.10;2.20;;;;;;;20.44;20.17;99719.44;4949513;29;20046;-78
2022/03/05 08:58:53;;;;;;;3.70;2.50;;;;;;;18.79;21.12;99710.47;4916723;29;20074;-75
2022/03/05 09:01:22;;;;;;;7.13;2.97;;;;;;;17.30;21.50;99752.47;4915049;29;20078;-76
2022/03/05 09:03:49;;;;;;;3.72;2.30;;;;;;;15.91;22.49;99748.44;4932429;29;20129;-75
2022/03/05 09:06:49;;;;;;;3.08;1.90;;;;;;;14.63;23.41;99755.56;4951526;29;20041;-77
2022/03/05 09:12:35;;;;;;;11.00;2.25;;;;;;;12.31;25.02;99725.63;4945121;29;20066;-77
2022/03/05 09:15:02;;;;;;;5.00;2.00;;;;;;;11.71;25.62;99718.72;4917560;29;20051;-77
2022/03/05 09:17:29;;;;;;;3.78;1.92;;;;;;;11.30;26.46;99749.69;4915646;29;20074;-77
2022/03/05 09:19:55;;;;;;;5.20;2.35;;;;;;;10.84;26.83;99751.09;4936986;29;20043;-76
2022/03/05 09:22:21;;;;;;;4.30;1.42;;;;;;;10.72;27.14;99774.66;4956006;29;20611;-76
2022/03/05 09:24:48;;;;;;;3.53;1.75;;;;;;;11.34;26.58;99766.16;4928097;29;20066;-76
2022/03/05 09:27:16;;;;;;;2.25;1.42;;;;;;;11.75;27.31;99796.00;4969054;29;20050;-74
2022/03/05 09:29:42;;;;;;;3.10;1.80;;;;;;;11.85;26.84;99783.69;4951854;28;20114;-78
2022/03/05 09:32:09;;;;;;;5.45;2.28;;;;;;;11.67;26.63;99796.13;4955157;29;20051;-77
2022/03/05 09:34:36;;;;;;;5.93;1.90;;;;;;;11.14;26.80;99785.47;4916353;29;20035;-77
2022/03/05 09:37:03;;;;;;;5.88;2.55;;;;;;;10.58;27.78;99790.38;4914241;29;20038;-79
2022/03/05 09:39:29;;;;;;;9.60;3.35;;;;;;;9.70;28.05;99782.34;4935195;29;20054;-80
2022/03/05 09:41:55;;;;;;;3.85;2.25;;;;;;;9.44;29.17;99805.81;4922595;29;20047;-79
2022/03/05 09:44:21;;;;;;;3.00;1.80;;;;;;;8.52;29.82;99691.03;4932877;29;20067;-77
2022/03/05 09:46:47;;;;;;;3.65;1.90;;;;;;;8.65;30.11;99765.41;4949238;29;20043;-78
2022/03/05 09:49:17;;;;;;;4.00;1.90;;;;;;;8.58;30.29;99792.19;4930239;29;20034;-79
2022/03/05 09:51:51;;;;;;;3.65;1.73;;;;;;;8.59;30.49;99819.88;4906488;29;20050;-78
2022/03/05 09:54:28;;;;;;;4.20;1.67;;;;;;;8.40;30.60;99817.25;4942240;29;20133;-78
2022/03/05 09:56:56;;;;;;;2.28;1.58;;;;;;;8.34;31.07;99818.97;4934356;29;20043;-77
2022/03/05 09:59:22;;;;;;;8.13;2.10;;;;;;;7.85;31.45;99776.56;4940013;29;20137;-80
2022/03/05 10:01:58;;;;;;;3.95;1.80;;;;;;;7.96;31.41;99818.06;4930387;29;20125;-81
2022/03/05 10:04:27;;;;;;;2.95;1.70;;;;;;;7.94;31.90;99832.72;4931987;29;20058;-77
2022/03/05 10:07:20;;;;;;;2.75;1.70;;;;;;;7.73;32.28;99817.97;4916055;29;20039;-78
2022/03/05 10:09:49;;;;;;;2.95;2.10;;;;;;;7.66;32.33;99827.47;4931657;29;20425;-76
2022/03/05 10:12:27;;;;;;;5.38;1.70;;;;;;;7.44;32.69;99798.03;4930140;29;20046;-79
2022/03/05 10:15:32;;;;;;;3.53;1.80;;;;;;;7.47;32.90;99824.81;4931063;29;20046;-79
2022/03/05 10:18:43;;;;;;;2.17;1.70;;;;;;;7.23;33.00;99768.63;4916830;29;20054;-77
2022/03/05 10:24:10;;;;;;;3.90;2.10;;;;;;;7.34;32.76;99808.34;4919010;29;20058;-77
2022/03/05 10:27:16;;;;;;;2.58;1.60;;;;;;;7.52;32.79;99846.41;4927092;29;20173;-79
2022/03/05 10:30:08;;;;;;;2.33;1.55;;;;;;;7.26;33.24;99822.13;4912201;29;20155;-78
2022/03/05 10:32:40;;;;;;;3.35;1.58;;;;;;;7.03;33.14;99828.91;4911949;29;20165;-78
2022/03/05 10:35:17;;;;;;;2.65;1.73;;;;;;;6.76;33.90;99804.59;4913177;29;20119;-79
2022/03/05 10:37:51;;;;;;;4.13;1.77;;;;;;;6.87;34.04;99827.94;4894874;29;20055;-78
2022/03/05 10:40:55;;;;;;;3.00;1.90;;;;;;;6.72;34.18;99817.50;4895763;29;20489;-78
2022/03/05 10:43:22;;;;;;;10.63;1.75;;;;;;;6.81;33.76;99832.22;4916012;29;20052;-78
2022/03/05 10:45:55;;;;;;;3.92;1.90;;;;;;;6.72;34.14;99833.88;4924391;29;20066;-79
2022/03/05 10:48:33;;;;;;;2.90;1.70;;;;;;;6.67;34.41;99812.28;4934473;29;20086;-77
2022/03/05 10:51:11;;;;;;;9.30;1.60;;;;;;;6.73;34.89;99829.56;4952085;29;20126;-77
2022/03/05 10:53:56;;;;;;;3.42;1.50;;;;;;;6.53;35.56;99830.25;4931858;29;20043;-76
2022/03/05 10:56:25;;;;;;;6.28;1.75;;;;;;;6.69;35.49;99840.75;4950585;29;20409;-79
2022/03/05 10:59:22;;;;;;;3.58;1.50;;;;;;;6.89;35.64;99835.69;4924690;29;20133;-78
2022/03/05 11:01:53;;;;;;;3.28;1.67;;;;;;;6.49;35.48;99833.69;4912969;29;20051;-78
2022/03/05 11:04:19;;;;;;;5.82;2.03;;;;;;;6.17;35.50;99842.00;4933019;29;20043;-77
2022/03/05 11:06:47;;;;;;;2.80;1.50;;;;;;;6.10;35.80;99835.03;4927793;29;20213;-77
2022/03/05 11:09:13;;;;;;;6.15;1.77;;;;;;;6.17;36.50;99842.00;4916957;29;20043;-77
2022/03/05 11:11:42;;;;;;;4.13;1.70;;;;;;;6.19;35.81;99832.56;4933680;29;20053;-78
2022/03/05 11:14:13;;;;;;;3.42;1.80;;;;;;;6.39;36.32;99845.69;4945947;29;20208;-77
2022/03/05 11:16:39;;;;;;;2.88;2.00;;;;;;;6.36;35.66;99834.44;4950871;29;20055;-78
2022/03/05 11:19:05;;;;;;;3.00;1.60;;;;;;;6.38;36.21;99837.91;4931574;29;20043;-78
2022/03/05 11:21:31;;;;;;;5.50;1.95;;;;;;;6.17;35.83;99842.00;4917754;29;20489;-77
2022/03/05 11:23:58;;;;;;;3.38;1.90;;;;;;;6.18;36.08;99854.09;4934418;29;20075;-79
2022/03/05 11:26:27;;;;;;;9.13;1.75;;;;;;;6.27;36.31;99836.09;4932975;29;20062;-77
2022/03/05 11:28:53;;;;;;;10.52;2.03;;;;;;;6.18;36.37;99843.75;4932168;28;20056;-77
2022/03/05 11:31:22;;;;;;;3.30;2.00;;;;;;;6.16;36.80;99850.63;4941396;29;20556;-77
2022/03/05 11:33:49;;;;;;;4.15;1.92;;;;;;;6.14;36.82;99852.31;4951240;29;20054;-78
2022/03/05 11:36:36;;;;;;;3.17;1.80;;;;;;;5.82;36.46;99845.06;4933556;29;20051;-79
2022/03/05 11:39:08;;;;;;;3.97;1.73;;;;;;;5.76;37.25;99852.75;4952044;29;20163;-77
2022/03/05 11:41:57;;;;;;;2.55;1.73;;;;;;;5.69;36.86;99851.81;4950301;29;20096;-78
2022/03/05 11:44:27;;;;;;;3.70;2.10;;;;;;;5.66;37.48;99857.78;4949903;29;20058;-77
2022/03/05 11:47:23;;;;;;;6.88;2.65;;;;;;;5.51;37.22;99844.69;4966853;29;20063;-77
2022/03/05 11:49:58;;;;;;;4.70;2.00;;;;;;;5.35;37.60;99866.84;4907643;29;20043;-80
2022/03/05 11:52:43;;;;;;;4.15;2.30;;;;;;;5.22;38.18;99865.81;4948889;29;20082;-77
2022/03/05 11:55:14;;;;;;;4.22;1.88;;;;;;;5.16;37.83;99869.19;4930369;29;20488;-80
2022/03/05 11:57:43;;;;;;;6.68;2.17;;;;;;;5.00;37.91;99869.81;4949363;29;20145;-77
2022/03/05 12:00:10;;;;;;;3.80;2.47;;;;;;;5.04;38.34;99875.03;4921336;29;20466;-78
2022/03/05 12:02:50;;;;;;;4.88;1.95;;;;;;;4.93;38.56;99856.81;4943305;29;20066;-76